createdAt,value
2022-09-28T00:02:31.880Z,81.23
2022-09-28T00:06:40.781Z,81.17
2022-09-28T00:10:58.315Z,80.99
2022-09-28T00:15:06.505Z,81.14
2022-09-28T00:19:14.677Z,81.35
2022-09-28T00:23:22.882Z,81.35
2022-09-28T00:27:30.424Z,81.18
2022-09-28T00:31:38.301Z,81.24
2022-09-28T00:35:45.926Z,81.25
2022-09-28T00:39:53.943Z,81.54
2022-09-28T00:44:33.685Z,81.77
2022-09-28T00:48:42.716Z,82.20
2022-09-28T00:52:53.517Z,82.16
2022-09-28T00:57:05.025Z,82.18
2022-09-28T01:01:13.836Z,82.27
2022-09-28T01:05:24.898Z,82.31
2022-09-28T01:09:33.492Z,82.43
2022-09-28T01:13:43.532Z,82.39
2022-09-28T01:18:04.764Z,82.40
2022-09-28T01:22:27.720Z,82.49
2022-09-28T01:26:59.792Z,82.56
2022-09-28T01:31:11.493Z,82.60
2022-09-28T01:35:22.568Z,82.43
2022-09-28T01:39:35.248Z,82.69
2022-09-28T01:43:45.901Z,82.70
2022-09-28T01:47:54.516Z,82.63
2022-09-28T01:52:06.085Z,82.62
2022-09-28T01:56:23.945Z,82.81
2022-09-28T02:00:31.904Z,82.53
2022-09-28T02:04:43.393Z,82.66
2022-09-28T02:08:54.324Z,82.67
2022-09-28T02:13:06.341Z,82.52
2022-09-28T02:17:16.692Z,82.41
2022-09-28T02:21:29.899Z,82.17
2022-09-28T02:25:42.274Z,82.55
2022-09-28T02:29:50.106Z,82.78
2022-09-28T02:34:00.284Z,82.65
2022-09-28T02:38:07.589Z,82.26
2022-09-28T02:42:22.165Z,81.98
2022-09-28T02:46:37.040Z,82.08
2022-09-28T02:50:51.503Z,82.06
2022-09-28T02:55:21.847Z,82.39
2022-09-28T02:59:41.455Z,82.56
2022-09-28T03:03:52.088Z,82.81
2022-09-28T03:08:02.224Z,82.89
2022-09-28T03:12:13.860Z,82.88
2022-09-28T03:16:22.575Z,83.26
2022-09-28T03:20:31.676Z,83.10
2022-09-28T03:24:39.631Z,83.33
2022-09-28T03:28:47.573Z,83.21
2022-09-28T03:33:03.505Z,83.18
2022-09-28T03:37:11.458Z,82.80
2022-09-28T03:41:19.173Z,82.47
2022-09-28T03:45:27.355Z,82.20
2022-09-28T03:49:36.060Z,82.07
2022-09-28T03:53:44.031Z,81.94
2022-09-28T03:57:57.296Z,81.77
2022-09-28T04:02:05.566Z,81.79
2022-09-28T04:06:13.721Z,81.85
2022-09-28T04:10:21.170Z,81.91
2022-09-28T04:14:28.901Z,82.15
2022-09-28T04:18:37.417Z,82.22
2022-09-28T04:22:45.680Z,82.08
2022-09-28T04:27:14.067Z,82.18
2022-09-28T04:31:23.698Z,82.02
2022-09-28T04:35:31.245Z,82.06
2022-09-28T04:39:39.246Z,82.35
2022-09-28T04:43:51.223Z,82.45
2022-09-28T04:47:59.863Z,82.18
2022-09-28T04:52:08.172Z,82.44
2022-09-28T04:56:17.508Z,82.33
2022-09-28T05:00:26.522Z,82.69
2022-09-28T05:04:34.720Z,82.75
2022-09-28T05:08:42.525Z,82.62
2022-09-28T05:12:50.335Z,82.80
2022-09-28T05:16:59.201Z,82.83
2022-09-28T05:21:08.850Z,82.63
2022-09-28T05:25:17.506Z,82.82
2022-09-28T05:29:27.989Z,82.85
2022-09-28T05:33:38.486Z,83.00
2022-09-28T05:37:46.732Z,82.80
2022-09-28T05:41:56.097Z,82.89
2022-09-28T05:46:04.431Z,82.61
2022-09-28T05:50:16.382Z,82.76
2022-09-28T05:54:23.786Z,82.69
2022-09-28T05:58:33.608Z,82.56
2022-09-28T06:02:41.593Z,82.44
2022-09-28T06:06:49.113Z,82.31
2022-09-28T06:10:56.671Z,82.02
2022-09-28T06:15:11.603Z,82.11
2022-09-28T06:19:18.948Z,81.68
2022-09-28T06:23:27.365Z,81.83
2022-09-28T06:27:36.094Z,81.97
2022-09-28T06:31:44.832Z,81.92
2022-09-28T06:35:52.609Z,81.32
2022-09-28T06:40:00.378Z,81.78
2022-09-28T06:44:08.754Z,81.25
2022-09-28T06:48:16.947Z,81.76
2022-09-28T06:52:24.888Z,81.37
2022-09-28T06:56:33.236Z,80.87
2022-09-28T07:00:43.342Z,80.29
2022-09-28T07:04:51.299Z,79.12
2022-09-28T07:09:16.160Z,79.02
2022-09-28T07:13:48.764Z,78.82
2022-09-28T07:18:03.780Z,78.85
2022-09-28T07:22:18.827Z,78.44
2022-09-28T07:26:27.504Z,78.17
2022-09-28T07:30:36.457Z,77.58
2022-09-28T07:34:44.926Z,77.21
2022-09-28T07:38:52.622Z,76.20
2022-09-28T07:43:04.928Z,76.08
2022-09-28T07:47:12.635Z,75.11
2022-09-28T07:51:21.508Z,74.64
2022-09-28T07:55:29.004Z,74.37
2022-09-28T07:59:37.586Z,74.01
2022-09-28T08:03:47.514Z,73.46
2022-09-28T08:07:58.183Z,73.51
2022-09-28T08:12:07.909Z,72.93
2022-09-28T08:16:15.521Z,72.82
2022-09-28T08:20:42.100Z,72.18
2022-09-28T08:24:51.190Z,71.68
2022-09-28T08:28:59.719Z,71.69
2022-09-28T08:33:09.293Z,71.12
2022-09-28T08:37:16.738Z,70.39
2022-09-28T08:41:33.297Z,70.49
2022-09-28T08:45:41.515Z,70.60
2022-09-28T08:49:51.021Z,70.50
2022-09-28T08:54:06.963Z,70.32
2022-09-28T08:58:18.765Z,70.27
2022-09-28T09:02:29.314Z,70.03
2022-09-28T09:06:49.221Z,69.62
2022-09-28T09:11:00.007Z,69.09
2022-09-28T09:15:34.474Z,69.04
2022-09-28T09:19:51.424Z,68.89
2022-09-28T09:24:09.935Z,69.01
2022-09-28T09:28:47.171Z,68.93
2022-09-28T09:33:24.696Z,68.61
2022-09-28T09:37:42.117Z,68.04
2022-09-28T09:42:01.798Z,68.03
2022-09-28T09:46:16.318Z,67.77
2022-09-28T09:50:30.279Z,66.91
2022-09-28T09:54:41.215Z,65.81
2022-09-28T09:58:52.418Z,65.86
2022-09-28T10:03:02.722Z,65.74
2022-09-28T10:07:15.080Z,65.52
2022-09-28T10:11:27.170Z,65.65
2022-09-28T10:15:36.399Z,64.12
2022-09-28T10:19:45.263Z,63.83
2022-09-28T10:23:57.394Z,63.93
2022-09-28T10:28:08.256Z,64.06
2022-09-28T10:32:26.741Z,64.26
2022-09-28T10:36:38.927Z,65.45
2022-09-28T10:40:48.819Z,67.06
2022-09-28T10:45:00.249Z,68.47
2022-09-28T10:49:14.334Z,69.49
2022-09-28T10:53:24.358Z,70.66
2022-09-28T10:57:36.029Z,71.65
2022-09-28T11:01:44.048Z,72.19
2022-09-28T11:05:58.602Z,72.55
2022-09-28T11:10:06.948Z,72.79
2022-09-28T11:14:27.102Z,74.04
2022-09-28T11:18:35.145Z,73.89
2022-09-28T11:22:44.894Z,74.32
2022-09-28T11:26:53.920Z,74.47
2022-09-28T11:31:01.617Z,74.42
2022-09-28T11:35:14.263Z,74.79
2022-09-28T11:39:28.734Z,74.88
2022-09-28T11:43:49.522Z,74.88
2022-09-28T11:48:00.685Z,75.27
2022-09-28T11:52:12.687Z,76.30
2022-09-28T11:56:28.301Z,75.98
2022-09-28T12:00:38.782Z,76.16
2022-09-28T12:04:47.841Z,76.09
2022-09-28T12:09:01.112Z,75.91
2022-09-28T12:13:14.335Z,75.62
2022-09-28T12:17:25.469Z,75.85
2022-09-28T12:21:40.078Z,75.45
2022-09-28T12:25:51.132Z,76.04
2022-09-28T12:30:01.877Z,75.94
2022-09-28T12:34:12.593Z,76.28
2022-09-28T12:38:32.521Z,76.68
2022-09-28T12:43:04.653Z,77.11
2022-09-28T12:47:39.915Z,77.24
2022-09-28T12:51:52.571Z,77.82
2022-09-28T12:56:04.017Z,78.03
2022-09-28T13:00:17.135Z,78.16
2022-09-28T13:04:52.076Z,78.00
2022-09-28T13:09:11.535Z,78.43
2022-09-28T13:13:29.593Z,78.43
2022-09-28T13:17:48.486Z,78.53
2022-09-28T13:22:05.374Z,77.90
2022-09-28T13:26:18.586Z,77.77
2022-09-28T13:30:27.062Z,78.08
2022-09-28T13:34:36.336Z,78.26
2022-09-28T13:38:52.010Z,78.76
2022-09-28T13:43:09.500Z,78.93
2022-09-28T13:47:41.650Z,79.09
2022-09-28T13:52:00.586Z,78.73
2022-09-28T13:56:23.300Z,78.77
2022-09-28T14:00:36.835Z,78.70
2022-09-28T14:05:00.181Z,78.79
2022-09-28T14:09:24.572Z,78.72
2022-09-28T14:14:06.199Z,78.40
2022-09-28T14:18:28.900Z,78.48
2022-09-28T14:22:39.243Z,78.79
2022-09-28T14:27:28.058Z,79.27
2022-09-28T14:31:35.636Z,79.75
2022-09-28T14:35:45.122Z,79.86
2022-09-28T14:40:27.174Z,80.10
2022-09-28T14:45:11.762Z,80.03
2022-09-28T14:49:51.420Z,79.95
2022-09-28T14:54:02.503Z,80.08
2022-09-28T14:58:17.941Z,80.08
2022-09-28T15:02:29.454Z,80.22
2022-09-28T15:06:49.561Z,80.02
2022-09-28T15:10:57.418Z,80.03
2022-09-28T15:15:08.693Z,79.67
2022-09-28T15:19:27.088Z,79.73
2022-09-28T15:23:39.304Z,79.03
2022-09-28T15:27:47.489Z,78.12
2022-09-28T15:31:55.524Z,77.70
2022-09-28T15:36:05.548Z,76.52
2022-09-28T15:40:19.146Z,75.91
2022-09-28T15:44:34.247Z,75.67
2022-09-28T15:48:52.208Z,75.56
2022-09-28T15:53:02.547Z,75.32
2022-09-28T15:57:34.319Z,75.65
2022-09-28T16:01:42.894Z,76.07
2022-09-28T16:05:52.580Z,76.14
2022-09-28T16:10:03.208Z,76.42
2022-09-28T16:14:21.435Z,76.97
2022-09-28T16:18:29.940Z,76.97
2022-09-28T16:22:37.936Z,76.70
2022-09-28T16:26:45.469Z,76.77
2022-09-28T16:31:03.988Z,76.63
2022-09-28T16:35:27.945Z,76.74
2022-09-28T16:39:35.892Z,76.77
2022-09-28T16:43:46.183Z,76.64
2022-09-28T16:47:55.078Z,76.33
2022-09-28T16:52:04.905Z,76.55
2022-09-28T16:56:14.271Z,76.66
2022-09-28T17:00:23.666Z,77.01
2022-09-28T17:04:32.110Z,77.64
2022-09-28T17:08:43.436Z,77.97
2022-09-28T17:12:51.042Z,78.35
2022-09-28T17:17:09.030Z,78.43
2022-09-28T17:21:20.921Z,78.62
2022-09-28T17:25:29.647Z,78.46
2022-09-28T17:29:37.559Z,78.56
2022-09-28T17:33:45.434Z,78.47
2022-09-28T17:37:53.623Z,78.55
2022-09-28T17:42:01.473Z,78.56
2022-09-28T17:46:16.130Z,78.34
2022-09-28T17:50:27.156Z,78.14
2022-09-28T17:54:35.076Z,78.07
2022-09-28T17:58:42.981Z,78.04
2022-09-28T18:02:52.140Z,77.80
2022-09-28T18:07:00.221Z,77.77
2022-09-28T18:11:08.059Z,77.54
2022-09-28T18:15:16.163Z,77.45
2022-09-28T18:19:25.714Z,77.40
2022-09-28T18:23:38.533Z,77.82
2022-09-28T18:27:48.968Z,78.09
2022-09-28T18:31:58.475Z,77.81
2022-09-28T18:36:08.676Z,77.61
2022-09-28T18:40:17.998Z,77.50
2022-09-28T18:44:25.898Z,77.35
2022-09-28T18:48:34.473Z,76.83
2022-09-28T18:52:43.887Z,76.50
2022-09-28T18:56:56.561Z,76.47
2022-09-28T19:01:28.854Z,76.23
2022-09-28T19:05:37.823Z,76.08
2022-09-28T19:09:46.049Z,75.92
2022-09-28T19:13:53.913Z,76.12
2022-09-28T19:18:01.731Z,76.18
2022-09-28T19:22:10.243Z,75.89
2022-09-28T19:26:20.543Z,75.95
2022-09-28T19:30:28.566Z,75.85
2022-09-28T19:34:37.095Z,75.57
2022-09-28T19:38:45.029Z,75.71
2022-09-28T19:42:52.986Z,75.33
2022-09-28T19:47:07.846Z,75.49
2022-09-28T19:51:17.174Z,75.55
2022-09-28T19:55:25.917Z,75.70
2022-09-28T19:59:33.302Z,76.18
2022-09-28T20:03:40.726Z,76.37
2022-09-28T20:07:48.014Z,76.05
2022-09-28T20:11:56.101Z,76.23
2022-09-28T20:16:08.917Z,76.40
2022-09-28T20:20:16.693Z,76.28
2022-09-28T20:24:23.941Z,76.34
2022-09-28T20:28:31.774Z,76.19
2022-09-28T20:32:39.640Z,76.42
2022-09-28T20:36:48.366Z,76.17
2022-09-28T20:40:56.510Z,76.46
2022-09-28T20:45:04.620Z,76.44
2022-09-28T20:49:13.357Z,76.52
2022-09-28T20:53:21.916Z,76.61
2022-09-28T20:57:29.615Z,76.33
2022-09-28T21:01:38.018Z,76.20
2022-09-28T21:05:46.561Z,76.45
2022-09-28T21:09:54.689Z,76.84
2022-09-28T21:14:04.171Z,76.66
2022-09-28T21:18:11.930Z,76.42
2022-09-28T21:22:19.294Z,76.70
2022-09-28T21:26:28.722Z,76.80
2022-09-28T21:30:36.104Z,76.99
2022-09-28T21:34:44.455Z,77.21
2022-09-28T21:38:52.369Z,77.15
2022-09-28T21:43:00.627Z,77.01
2022-09-28T21:47:08.994Z,76.80
2022-09-28T21:51:17.829Z,76.87
2022-09-28T21:55:26.586Z,77.26
2022-09-28T21:59:33.969Z,77.21
2022-09-28T22:03:41.897Z,77.45
2022-09-28T22:07:49.811Z,77.52
2022-09-28T22:11:57.467Z,77.84
2022-09-28T22:16:06.877Z,77.67
2022-09-28T22:20:14.766Z,77.64
2022-09-28T22:24:27.879Z,77.77
2022-09-28T22:28:35.800Z,77.61
2022-09-28T22:32:43.368Z,77.74
2022-09-28T22:36:51.177Z,77.77
2022-09-28T22:41:00.601Z,77.71
2022-09-28T22:45:09.988Z,77.62
2022-09-28T22:49:18.748Z,77.63
2022-09-28T22:53:27.007Z,77.78
2022-09-28T22:57:35.147Z,77.43
2022-09-28T23:01:45.030Z,78.07
2022-09-28T23:05:57.723Z,78.50
2022-09-28T23:10:06.141Z,78.55
2022-09-28T23:14:14.925Z,78.55
2022-09-28T23:18:23.077Z,78.54
2022-09-28T23:22:31.008Z,78.48
2022-09-28T23:26:39.169Z,78.42
2022-09-28T23:30:46.938Z,78.43
2022-09-28T23:34:54.442Z,78.66
2022-09-28T23:39:02.418Z,78.57
2022-09-28T23:43:10.860Z,78.73
2022-09-28T23:47:18.549Z,78.83
2022-09-28T23:51:26.137Z,78.89
2022-09-28T23:55:34.061Z,78.93
2022-09-28T23:59:42.551Z,79.10
